Main page
METAR-TAF:

METAR-TAF

Airports :

Asturias Airport

Avilés, Spain

latitude: 43-33N, longitude: 006-02W, elevation: 127 m

Current weather observation

The report was made 32 minutes ago, at 23:00 UTC
Wind 6 kt from the West/Southwest
Temperature 11°C
Humidity 82%
Pressure 1024 hPa
Visibility 10 km or more
no clouds below 1500 m and no cumulonimbus

METAR: LEAS 282300Z AUTO 25006KT CAVOK 11/08 Q1024

Time: 00:32 (23:32 UTC)

Forecast

The report was made 3 hours and 32 minutes ago, at 20:00 UTC
Forecast valid from 28 at 21 UTC to 29 at 21 UTC
Wind 5 kt from the South/Southwest
Visibility 10 km or more
Scattered clouds at a height of 3800 ft
Probability 40% :
Temporary
from 29 at 11 UTC to 29 at 16 UTC
Wind 10 kt from the East/Northeast

TAF: LEAS 282000Z 2821/2921 21005KT 9999 SCT038 TX18/2913Z TN11/2907Z PROB40 TEMPO 2911/2916 07010KT

Weather observations and forecasts of more than 4000 airports (METAR and TAF reports).

The available stations are represented by yellow and red dots on the map.

Hover mouse over dot to see the name of the station.

Then click to see weather observations and forecasts.

To change the map : click on the green buttons with a black cross to zoom in, on the green button with a dash to zoom out, or on the green arrows for adjacent maps.


METAR-TAF: